createdAt,value
2023-04-05T00:00:00.000Z,13.8
2023-04-05T00:15:00.000Z,14.12
2023-04-05T00:30:00.000Z,16.55
2023-04-05T00:45:00.000Z,16.58
2023-04-05T01:00:00.000Z,15.72
2023-04-05T01:15:00.000Z,14.28
2023-04-05T01:30:00.000Z,14.42
2023-04-05T01:45:00.000Z,15.53
2023-04-05T02:00:00.000Z,15.78
2023-04-05T02:15:00.000Z,16.87
2023-04-05T02:30:00.000Z,17
2023-04-05T02:45:00.000Z,16.92
2023-04-05T03:00:00.000Z,15.32
2023-04-05T03:15:00.000Z,14.86
2023-04-05T03:30:00.000Z,14.74
2023-04-05T03:45:00.000Z,16.06
2023-04-05T04:00:00.000Z,18.75
2023-04-05T04:15:00.000Z,19.32
2023-04-05T04:30:00.000Z,18.71
2023-04-05T04:45:00.000Z,20.01
2023-04-05T05:00:00.000Z,20.81
2023-04-05T05:15:00.000Z,20.98
2023-04-05T05:30:00.000Z,28.75
2023-04-05T05:45:00.000Z,19.21
2023-04-05T06:00:00.000Z,18.41
2023-04-05T06:15:00.000Z,18.95
2023-04-05T06:30:00.000Z,15.81
2023-04-05T06:45:00.000Z,14.95
2023-04-05T07:00:00.000Z,14.6
2023-04-05T07:15:00.000Z,14.89
2023-04-05T07:30:00.000Z,16.08
2023-04-05T07:45:00.000Z,16.86
2023-04-05T08:00:00.000Z,17.12
2023-04-05T08:15:00.000Z,17.22
2023-04-05T08:30:00.000Z,15.85
2023-04-05T08:45:00.000Z,15.65
2023-04-05T09:00:00.000Z,15.61
2023-04-05T09:15:00.000Z,16.45
2023-04-05T09:30:00.000Z,15.73
2023-04-05T09:45:00.000Z,16.02
2023-04-05T10:00:00.000Z,15.46
2023-04-05T10:15:00.000Z,15.19
2023-04-05T10:30:00.000Z,14.46
2023-04-05T10:45:00.000Z,14.21
2023-04-05T11:00:00.000Z,14.16
2023-04-05T11:15:00.000Z,13.95
2023-04-05T11:30:00.000Z,15.47
2023-04-05T11:45:00.000Z,14.84
2023-04-05T12:00:00.000Z,14
2023-04-05T12:15:00.000Z,14.32
2023-04-05T12:30:00.000Z,14.49
2023-04-05T12:45:00.000Z,14.39
2023-04-05T13:00:00.000Z,14.82
2023-04-05T13:15:00.000Z,14.48
2023-04-05T13:30:00.000Z,14.75
2023-04-05T13:45:00.000Z,15.67
2023-04-05T14:00:00.000Z,15.55
2023-04-05T14:15:00.000Z,14.44
2023-04-05T14:30:00.000Z,14.44
2023-04-05T14:45:00.000Z,14.46
2023-04-05T15:00:00.000Z,15.31
2023-04-05T15:15:00.000Z,14.61
2023-04-05T15:30:00.000Z,14.24
2023-04-05T15:45:00.000Z,14.8
2023-04-05T16:00:00.000Z,14.87
2023-04-05T16:15:00.000Z,15.58
2023-04-05T16:30:00.000Z,15.73
2023-04-05T16:45:00.000Z,18.66
2023-04-05T17:00:00.000Z,16.08
2023-04-05T17:15:00.000Z,17.01
2023-04-05T17:30:00.000Z,16.49
2023-04-05T17:45:00.000Z,18.62
2023-04-05T18:00:00.000Z,19.52
2023-04-05T18:15:00.000Z,18.32
2023-04-05T18:30:00.000Z,17.48
2023-04-05T18:45:00.000Z,16.53
2023-04-05T19:00:00.000Z,17.08
2023-04-05T19:15:00.000Z,16.86
2023-04-05T19:30:00.000Z,16.18
2023-04-05T19:45:00.000Z,19.31
2023-04-05T20:00:00.000Z,15.21
2023-04-05T20:15:00.000Z,19.2
2023-04-05T20:30:00.000Z,24.93
2023-04-05T20:45:00.000Z,28.38
2023-04-05T21:00:00.000Z,21.59
2023-04-05T21:15:00.000Z,21.6
2023-04-05T21:30:00.000Z,22.36
2023-04-05T21:45:00.000Z,23.09
2023-04-05T22:00:00.000Z,23.89
2023-04-05T22:15:00.000Z,23.58
2023-04-05T22:30:00.000Z,22.79
2023-04-05T22:45:00.000Z,25.79
2023-04-05T23:00:00.000Z,25.65
2023-04-05T23:15:00.000Z,24.36
2023-04-05T23:30:00.000Z,21.96
2023-04-05T23:45:00.000Z,21.05
